sensor_id;sensor_type;location;lat;lon;timestamp;temperature;humidity
67165;SHT31;54093;50.014;19.984;2022-11-18T00:06:55;1.27;88.76
67165;SHT31;54093;50.014;19.984;2022-11-18T00:16:16;1.26;89.12
67165;SHT31;54093;50.014;19.984;2022-11-18T00:25:36;1.22;89.03
67165;SHT31;54093;50.014;19.984;2022-11-18T00:34:57;1.23;88.85
67165;SHT31;54093;50.014;19.984;2022-11-18T00:44:18;1.25;88.96
67165;SHT31;54093;50.014;19.984;2022-11-18T00:53:39;1.17;88.60
67165;SHT31;54093;50.014;19.984;2022-11-18T01:03:00;1.16;89.17
67165;SHT31;54093;50.014;19.984;2022-11-18T01:12:22;1.20;88.98
67165;SHT31;54093;50.014;19.984;2022-11-18T01:22:15;1.27;89.43
67165;SHT31;54093;50.014;19.984;2022-11-18T01:31:36;1.25;88.92
67165;SHT31;54093;50.014;19.984;2022-11-18T01:40:57;1.25;89.37
67165;SHT31;54093;50.014;19.984;2022-11-18T01:50:19;1.15;88.31
67165;SHT31;54093;50.014;19.984;2022-11-18T01:59:43;1.19;88.77
67165;SHT31;54093;50.014;19.984;2022-11-18T02:09:06;1.20;89.00
67165;SHT31;54093;50.014;19.984;2022-11-18T02:18:37;1.20;88.33
67165;SHT31;54093;50.014;19.984;2022-11-18T02:37:51;1.19;88.38
67165;SHT31;54093;50.014;19.984;2022-11-18T02:47:14;1.17;89.08
67165;SHT31;54093;50.014;19.984;2022-11-18T02:56:37;1.12;89.17
67165;SHT31;54093;50.014;19.984;2022-11-18T03:25:05;1.13;89.78
67165;SHT31;54093;50.014;19.984;2022-11-18T03:34:38;1.16;90.07
67165;SHT31;54093;50.014;19.984;2022-11-18T03:44:10;1.20;90.20
67165;SHT31;54093;50.014;19.984;2022-11-18T03:53:36;1.17;89.98
67165;SHT31;54093;50.014;19.984;2022-11-18T04:02:57;1.12;89.83
67165;SHT31;54093;50.014;19.984;2022-11-18T04:12:20;1.05;89.58
67165;SHT31;54093;50.014;19.984;2022-11-18T04:21:41;1.03;89.79
67165;SHT31;54093;50.014;19.984;2022-11-18T04:31:01;1.08;90.46
67165;SHT31;54093;50.014;19.984;2022-11-18T04:40:22;1.13;90.29
67165;SHT31;54093;50.014;19.984;2022-11-18T04:49:43;1.13;90.15
67165;SHT31;54093;50.014;19.984;2022-11-18T04:59:04;0.99;89.62
67165;SHT31;54093;50.014;19.984;2022-11-18T05:08:25;0.96;89.88
67165;SHT31;54093;50.014;19.984;2022-11-18T05:17:46;1.03;90.31
67165;SHT31;54093;50.014;19.984;2022-11-18T05:27:07;0.99;90.19
67165;SHT31;54093;50.014;19.984;2022-11-18T05:36:28;0.96;90.45
67165;SHT31;54093;50.014;19.984;2022-11-18T05:45:50;0.91;90.07
67165;SHT31;54093;50.014;19.984;2022-11-18T05:55:12;0.89;90.37
67165;SHT31;54093;50.014;19.984;2022-11-18T06:04:47;0.98;90.30
67165;SHT31;54093;50.014;19.984;2022-11-18T06:14:15;0.92;89.91
67165;SHT31;54093;50.014;19.984;2022-11-18T06:23:38;0.85;90.11
67165;SHT31;54093;50.014;19.984;2022-11-18T06:32:59;0.87;90.24
67165;SHT31;54093;50.014;19.984;2022-11-18T06:42:19;0.92;90.66
67165;SHT31;54093;50.014;19.984;2022-11-18T06:51:59;0.89;90.38
67165;SHT31;54093;50.014;19.984;2022-11-18T07:01:25;0.96;90.65
67165;SHT31;54093;50.014;19.984;2022-11-18T07:10:51;0.91;90.58
67165;SHT31;54093;50.014;19.984;2022-11-18T07:20:12;0.93;90.66
67165;SHT31;54093;50.014;19.984;2022-11-18T07:29:33;0.88;90.44
67165;SHT31;54093;50.014;19.984;2022-11-18T07:38:54;0.91;90.64
67165;SHT31;54093;50.014;19.984;2022-11-18T07:48:15;0.87;89.86
67165;SHT31;54093;50.014;19.984;2022-11-18T07:57:36;0.79;90.19
67165;SHT31;54093;50.014;19.984;2022-11-18T08:06:57;0.74;90.12
67165;SHT31;54093;50.014;19.984;2022-11-18T08:16:21;0.77;90.62
67165;SHT31;54093;50.014;19.984;2022-11-18T08:25:43;0.79;90.67
67165;SHT31;54093;50.014;19.984;2022-11-18T08:35:04;0.87;90.29
67165;SHT31;54093;50.014;19.984;2022-11-18T08:44:25;0.82;90.14
67165;SHT31;54093;50.014;19.984;2022-11-18T08:53:46;0.81;90.21
67165;SHT31;54093;50.014;19.984;2022-11-18T09:03:07;0.74;89.98
67165;SHT31;54093;50.014;19.984;2022-11-18T09:12:28;0.74;90.17
67165;SHT31;54093;50.014;19.984;2022-11-18T09:21:49;0.75;90.53
67165;SHT31;54093;50.014;19.984;2022-11-18T09:31:12;0.82;90.08
67165;SHT31;54093;50.014;19.984;2022-11-18T09:40:38;0.87;89.72
67165;SHT31;54093;50.014;19.984;2022-11-18T09:50:06;0.98;90.18
67165;SHT31;54093;50.014;19.984;2022-11-18T09:59:30;0.91;89.54
67165;SHT31;54093;50.014;19.984;2022-11-18T10:09:17;0.96;89.43
67165;SHT31;54093;50.014;19.984;2022-11-18T10:28:29;0.98;89.50
67165;SHT31;54093;50.014;19.984;2022-11-18T10:37:59;0.95;89.09
67165;SHT31;54093;50.014;19.984;2022-11-18T10:47:27;0.92;89.17
67165;SHT31;54093;50.014;19.984;2022-11-18T11:06:37;0.92;89.79
67165;SHT31;54093;50.014;19.984;2022-11-18T11:16:00;0.93;88.77
67165;SHT31;54093;50.014;19.984;2022-11-18T11:35:14;0.89;89.20
67165;SHT31;54093;50.014;19.984;2022-11-18T11:54:42;0.75;89.33
67165;SHT31;54093;50.014;19.984;2022-11-18T12:04:43;0.64;88.41
67165;SHT31;54093;50.014;19.984;2022-11-18T12:14:15;0.54;88.06
67165;SHT31;54093;50.014;19.984;2022-11-18T12:23:39;0.43;88.02
67165;SHT31;54093;50.014;19.984;2022-11-18T12:33:00;0.41;88.68
67165;SHT31;54093;50.014;19.984;2022-11-18T12:42:36;0.36;88.99
67165;SHT31;54093;50.014;19.984;2022-11-18T13:02:21;0.26;88.10
67165;SHT31;54093;50.014;19.984;2022-11-18T13:11:49;0.20;87.87
67165;SHT31;54093;50.014;19.984;2022-11-18T13:21:10;0.26;87.85
67165;SHT31;54093;50.014;19.984;2022-11-18T13:30:55;0.21;87.65
67165;SHT31;54093;50.014;19.984;2022-11-18T13:40:24;0.11;87.88
67165;SHT31;54093;50.014;19.984;2022-11-18T13:49:54;0.07;87.71
67165;SHT31;54093;50.014;19.984;2022-11-18T14:08:43;0.00;86.29
67165;SHT31;54093;50.014;19.984;2022-11-18T14:18:33;0.03;87.04
67165;SHT31;54093;50.014;19.984;2022-11-18T14:28:41;-0.04;87.01
67165;SHT31;54093;50.014;19.984;2022-11-18T14:37:37;0.03;87.20
67165;SHT31;54093;50.014;19.984;2022-11-18T14:47:01;0.06;87.02
67165;SHT31;54093;50.014;19.984;2022-11-18T14:56:26;0.16;87.30
67165;SHT31;54093;50.014;19.984;2022-11-18T15:05:48;0.13;86.48
67165;SHT31;54093;50.014;19.984;2022-11-18T15:15:09;0.16;86.18
67165;SHT31;54093;50.014;19.984;2022-11-18T15:24:30;0.09;85.56
67165;SHT31;54093;50.014;19.984;2022-11-18T15:33:51;-0.04;85.50
67165;SHT31;54093;50.014;19.984;2022-11-18T15:43:12;-0.04;85.50
67165;SHT31;54093;50.014;19.984;2022-11-18T15:52:33;-0.21;83.68
67165;SHT31;54093;50.014;19.984;2022-11-18T16:01:54;-0.33;84.32
67165;SHT31;54093;50.014;19.984;2022-11-18T16:11:16;-0.25;85.37
67165;SHT31;54093;50.014;19.984;2022-11-18T16:20:57;-0.31;84.70
67165;SHT31;54093;50.014;19.984;2022-11-18T16:30:18;-0.36;83.78
67165;SHT31;54093;50.014;19.984;2022-11-18T16:39:58;-0.29;84.22
67165;SHT31;54093;50.014;19.984;2022-11-18T16:49:21;-0.21;84.46
67165;SHT31;54093;50.014;19.984;2022-11-18T16:58:42;-0.15;84.81
67165;SHT31;54093;50.014;19.984;2022-11-18T17:08:03;-0.19;83.48
67165;SHT31;54093;50.014;19.984;2022-11-18T17:17:24;-0.17;85.00
67165;SHT31;54093;50.014;19.984;2022-11-18T17:26:45;-0.12;84.85
67165;SHT31;54093;50.014;19.984;2022-11-18T17:36:09;-0.11;84.65
67165;SHT31;54093;50.014;19.984;2022-11-18T17:45:30;-0.15;84.52
67165;SHT31;54093;50.014;19.984;2022-11-18T17:54:51;-0.10;85.20
67165;SHT31;54093;50.014;19.984;2022-11-18T18:04:12;-0.05;84.67
67165;SHT31;54093;50.014;19.984;2022-11-18T18:13:41;-0.07;84.86
67165;SHT31;54093;50.014;19.984;2022-11-18T18:23:21;-0.05;85.05
67165;SHT31;54093;50.014;19.984;2022-11-18T18:32:42;-0.15;84.03
67165;SHT31;54093;50.014;19.984;2022-11-18T18:42:03;-0.22;81.77
67165;SHT31;54093;50.014;19.984;2022-11-18T18:51:25;-0.26;82.46
67165;SHT31;54093;50.014;19.984;2022-11-18T19:00:46;-0.33;80.74
67165;SHT31;54093;50.014;19.984;2022-11-18T19:10:07;-0.26;83.74
67165;SHT31;54093;50.014;19.984;2022-11-18T19:19:28;-0.28;83.46
67165;SHT31;54093;50.014;19.984;2022-11-18T19:29:07;-0.26;83.32
67165;SHT31;54093;50.014;19.984;2022-11-18T19:38:28;-0.25;83.91
67165;SHT31;54093;50.014;19.984;2022-11-18T19:47:49;-0.28;82.67
67165;SHT31;54093;50.014;19.984;2022-11-18T19:57:10;-0.31;83.25
67165;SHT31;54093;50.014;19.984;2022-11-18T20:06:33;-0.22;84.38
67165;SHT31;54093;50.014;19.984;2022-11-18T20:16:08;-0.25;82.61
67165;SHT31;54093;50.014;19.984;2022-11-18T20:25:30;-0.35;82.44
67165;SHT31;54093;50.014;19.984;2022-11-18T20:34:50;-0.42;82.08
67165;SHT31;54093;50.014;19.984;2022-11-18T20:44:11;-0.46;80.60
67165;SHT31;54093;50.014;19.984;2022-11-18T20:53:32;-0.40;82.69
67165;SHT31;54093;50.014;19.984;2022-11-18T21:02:57;-0.38;80.89
67165;SHT31;54093;50.014;19.984;2022-11-18T21:12:18;-0.43;81.01
67165;SHT31;54093;50.014;19.984;2022-11-18T21:21:39;-0.43;81.54
67165;SHT31;54093;50.014;19.984;2022-11-18T21:31:11;-0.45;80.73
67165;SHT31;54093;50.014;19.984;2022-11-18T21:40:32;-0.50;80.00
67165;SHT31;54093;50.014;19.984;2022-11-18T21:49:53;-0.46;80.44
67165;SHT31;54093;50.014;19.984;2022-11-18T21:59:14;-0.46;80.78
67165;SHT31;54093;50.014;19.984;2022-11-18T22:08:37;-0.50;77.59
67165;SHT31;54093;50.014;19.984;2022-11-18T22:17:58;-0.50;79.46
67165;SHT31;54093;50.014;19.984;2022-11-18T22:27:19;-0.48;81.63
67165;SHT31;54093;50.014;19.984;2022-11-18T22:36:39;-0.45;81.55
67165;SHT31;54093;50.014;19.984;2022-11-18T22:46:06;-0.43;82.50
67165;SHT31;54093;50.014;19.984;2022-11-18T22:55:27;-0.40;83.07
67165;SHT31;54093;50.014;19.984;2022-11-18T23:04:48;-0.52;81.29
67165;SHT31;54093;50.014;19.984;2022-11-18T23:14:09;-0.46;82.24
67165;SHT31;54093;50.014;19.984;2022-11-18T23:23:30;-0.48;81.91
67165;SHT31;54093;50.014;19.984;2022-11-18T23:32:52;-0.46;82.47
67165;SHT31;54093;50.014;19.984;2022-11-18T23:42:13;-0.42;83.18
67165;SHT31;54093;50.014;19.984;2022-11-18T23:51:34;-0.45;82.98
